createdAt,value
2023-05-09T00:00:18.633Z,19.63
2023-05-09T00:02:49.336Z,19.64
2023-05-09T00:05:20.087Z,19.69
2023-05-09T00:07:51.495Z,19.77
2023-05-09T00:10:21.992Z,19.88
2023-05-09T00:12:52.794Z,19.90
2023-05-09T00:15:22.923Z,19.87
2023-05-09T00:17:55.051Z,19.78
2023-05-09T00:20:27.701Z,19.77
2023-05-09T00:22:59.394Z,19.70
2023-05-09T00:25:31.543Z,19.75
2023-05-09T00:28:02.913Z,19.74
2023-05-09T00:30:35.161Z,19.69
2023-05-09T00:33:06.022Z,19.75
2023-05-09T00:35:37.291Z,19.74
2023-05-09T00:38:10.524Z,19.73
2023-05-09T00:40:41.240Z,19.74
2023-05-09T00:43:13.183Z,19.70
2023-05-09T00:45:46.448Z,19.73
2023-05-09T00:48:18.603Z,19.73
2023-05-09T00:50:56.501Z,19.71
2023-05-09T00:53:28.872Z,19.71
2023-05-09T00:55:59.815Z,19.69
2023-05-09T00:58:31.165Z,19.67
2023-05-09T01:01:03.708Z,19.71
2023-05-09T01:03:34.210Z,19.75
2023-05-09T01:06:12.570Z,19.71
2023-05-09T01:08:55.912Z,19.67
2023-05-09T01:11:39.089Z,19.66
2023-05-09T01:14:44.210Z,19.64
2023-05-09T01:17:52.249Z,19.54
2023-05-09T01:20:36.407Z,19.42
2023-05-09T01:23:20.802Z,19.23
2023-05-09T01:26:13.121Z,19.15
2023-05-09T01:29:04.115Z,19.06
2023-05-09T01:31:36.485Z,19.00
2023-05-09T01:34:08.932Z,18.99
2023-05-09T01:36:42.849Z,18.94
2023-05-09T01:39:15.478Z,18.78
2023-05-09T01:41:52.486Z,18.76
2023-05-09T01:47:19.260Z,18.71
2023-05-09T01:49:51.669Z,18.67
2023-05-09T01:52:23.282Z,18.59
2023-05-09T01:54:55.430Z,18.51
2023-05-09T01:57:26.874Z,18.59
2023-05-09T01:59:59.846Z,18.73
2023-05-09T02:02:31.345Z,18.91
2023-05-09T02:05:04.212Z,18.95
2023-05-09T02:07:36.818Z,18.96
2023-05-09T02:10:09.508Z,19.03
2023-05-09T02:12:41.677Z,19.00
2023-05-09T02:15:12.757Z,19.03
2023-05-09T02:17:44.540Z,19.02
2023-05-09T02:20:14.972Z,19.02
2023-05-09T02:22:46.026Z,19.03
2023-05-09T02:25:17.752Z,19.08
2023-05-09T02:27:49.683Z,19.03
2023-05-09T02:30:27.348Z,19.03
2023-05-09T02:33:03.018Z,18.99
2023-05-09T02:35:33.784Z,18.99
2023-05-09T02:38:05.020Z,19.02
2023-05-09T02:40:35.961Z,19.02
2023-05-09T02:43:06.231Z,19.00
2023-05-09T02:45:37.542Z,18.92
2023-05-09T02:48:09.223Z,18.88
2023-05-09T02:50:40.880Z,18.87
2023-05-09T02:53:11.410Z,18.85
2023-05-09T02:55:44.893Z,18.69
2023-05-09T02:58:15.393Z,18.71
2023-05-09T03:00:47.964Z,18.59
2023-05-09T03:03:19.415Z,18.57
2023-05-09T03:05:49.992Z,18.55
2023-05-09T03:08:20.477Z,18.47
2023-05-09T03:10:50.516Z,18.40
2023-05-09T03:13:21.669Z,18.33
2023-05-09T03:15:52.187Z,18.37
2023-05-09T03:18:22.975Z,18.38
2023-05-09T03:20:54.872Z,18.44
2023-05-09T03:23:25.151Z,18.41
2023-05-09T03:25:55.454Z,18.43
2023-05-09T03:28:25.893Z,18.57
2023-05-09T03:30:56.075Z,18.61
2023-05-09T03:33:29.723Z,18.62
2023-05-09T03:36:01.694Z,18.65
2023-05-09T03:38:32.698Z,18.65
2023-05-09T03:41:03.160Z,18.67
2023-05-09T03:43:34.246Z,18.55
2023-05-09T03:46:05.438Z,18.51
2023-05-09T03:48:36.325Z,18.47
2023-05-09T03:51:06.736Z,18.44
2023-05-09T03:53:41.259Z,18.37
2023-05-09T03:56:12.530Z,18.33
2023-05-09T03:58:49.625Z,18.20
2023-05-09T04:01:20.366Z,18.07
2023-05-09T04:03:50.598Z,17.91
2023-05-09T04:06:21.900Z,17.87
2023-05-09T04:08:54.125Z,17.86
2023-05-09T04:11:24.491Z,17.98
2023-05-09T04:13:54.733Z,17.97
2023-05-09T04:16:36.134Z,18.08
2023-05-09T04:19:07.534Z,17.96
2023-05-09T04:21:39.389Z,17.91
2023-05-09T04:24:09.934Z,17.91
2023-05-09T04:26:46.912Z,17.86
2023-05-09T04:29:20.690Z,17.79
2023-05-09T04:31:56.958Z,17.89
2023-05-09T04:34:29.522Z,17.96
2023-05-09T04:37:05.102Z,17.89
2023-05-09T04:39:36.319Z,17.85
2023-05-09T04:42:15.991Z,17.96
2023-05-09T04:44:46.318Z,17.96
2023-05-09T04:47:17.814Z,17.91
2023-05-09T04:49:48.033Z,18.11
2023-05-09T04:52:18.848Z,18.11
2023-05-09T04:54:49.297Z,18.08
2023-05-09T04:57:23.123Z,18.08
2023-05-09T04:59:59.241Z,18.04
2023-05-09T05:02:30.302Z,17.96
2023-05-09T05:05:10.707Z,17.90
2023-05-09T05:07:46.541Z,17.77
2023-05-09T05:10:23.076Z,17.73
2023-05-09T05:13:02.741Z,17.63
2023-05-09T05:15:33.303Z,17.56
2023-05-09T05:18:03.843Z,17.50
2023-05-09T05:20:37.362Z,17.38
2023-05-09T05:23:07.551Z,17.39
2023-05-09T05:25:37.738Z,17.26
2023-05-09T05:28:08.661Z,17.16
2023-05-09T05:30:43.590Z,17.19
2023-05-09T05:33:14.357Z,17.16
2023-05-09T05:35:44.428Z,17.15
2023-05-09T05:38:15.352Z,17.25
2023-05-09T05:40:48.294Z,17.28
2023-05-09T05:43:19.890Z,17.19
2023-05-09T05:45:50.411Z,17.10
2023-05-09T05:48:25.055Z,17.10
2023-05-09T05:50:57.648Z,17.11
2023-05-09T05:53:32.816Z,17.07
2023-05-09T05:56:03.585Z,17.00
2023-05-09T05:58:34.568Z,17.04
2023-05-09T06:01:05.717Z,17.02
2023-05-09T06:03:35.841Z,17.01
2023-05-09T06:06:09.118Z,17.02
2023-05-09T06:08:40.602Z,16.92
2023-05-09T06:11:10.980Z,16.91
2023-05-09T06:13:42.451Z,16.85
2023-05-09T06:16:19.545Z,16.89
2023-05-09T06:18:55.711Z,16.88
2023-05-09T06:21:26.450Z,16.92
2023-05-09T06:24:09.697Z,16.94
2023-05-09T06:26:40.709Z,16.89
2023-05-09T06:29:12.032Z,16.87
2023-05-09T06:31:43.055Z,16.89
2023-05-09T06:34:14.118Z,16.94
2023-05-09T06:36:45.256Z,16.89
2023-05-09T06:39:16.280Z,16.91
2023-05-09T06:41:47.189Z,16.87
2023-05-09T06:44:26.767Z,16.84
2023-05-09T06:46:58.360Z,16.78
2023-05-09T06:49:29.751Z,16.85
2023-05-09T06:52:00.168Z,16.82
2023-05-09T06:54:30.941Z,16.72
2023-05-09T06:57:01.927Z,16.71
2023-05-09T06:59:32.013Z,16.67
2023-05-09T07:02:02.275Z,16.65
2023-05-09T07:04:33.515Z,16.70
2023-05-09T07:07:04.744Z,16.71
2023-05-09T07:09:35.504Z,16.65
2023-05-09T07:12:07.125Z,16.70
2023-05-09T07:14:37.492Z,16.68
2023-05-09T07:17:21.859Z,16.68
2023-05-09T07:19:54.677Z,16.72
2023-05-09T07:22:25.190Z,16.68
2023-05-09T07:24:56.377Z,16.63
2023-05-09T07:27:27.325Z,16.63
2023-05-09T07:29:57.827Z,16.70
2023-05-09T07:32:30.117Z,16.59
2023-05-09T07:35:00.592Z,16.56
2023-05-09T07:37:30.622Z,16.53
2023-05-09T07:40:01.834Z,16.56
2023-05-09T07:42:35.600Z,16.51
2023-05-09T07:45:08.223Z,16.56
2023-05-09T07:47:39.199Z,16.53
2023-05-09T07:50:09.438Z,16.53
2023-05-09T07:52:39.519Z,16.56
2023-05-09T07:55:10.295Z,16.57
2023-05-09T07:57:42.033Z,16.61
2023-05-09T08:00:14.503Z,16.60
2023-05-09T08:02:45.999Z,16.61
2023-05-09T08:05:18.128Z,16.61
2023-05-09T08:07:48.789Z,16.63
2023-05-09T08:10:19.568Z,16.63
2023-05-09T08:12:50.360Z,16.65
2023-05-09T08:15:20.549Z,16.70
2023-05-09T08:17:50.655Z,16.67
2023-05-09T08:20:20.799Z,16.64
2023-05-09T08:22:51.704Z,16.63
2023-05-09T08:25:23.019Z,16.64
2023-05-09T08:27:53.398Z,16.71
2023-05-09T08:30:23.473Z,16.71
2023-05-09T08:32:53.662Z,16.68
2023-05-09T08:35:23.776Z,16.63
2023-05-09T08:37:54.832Z,16.67
2023-05-09T08:40:24.940Z,16.67
2023-05-09T08:42:56.280Z,16.68
2023-05-09T08:45:29.805Z,16.65
2023-05-09T08:48:01.478Z,16.68
2023-05-09T08:50:31.835Z,16.70
2023-05-09T08:53:01.889Z,16.68
2023-05-09T08:55:34.129Z,16.65
2023-05-09T08:58:07.258Z,16.70
2023-05-09T09:00:41.589Z,16.72
2023-05-09T09:03:12.450Z,16.68
2023-05-09T09:05:45.072Z,16.71
2023-05-09T09:08:16.601Z,16.67
2023-05-09T09:10:50.411Z,16.64
2023-05-09T09:13:23.291Z,16.61
2023-05-09T09:15:55.859Z,16.64
2023-05-09T09:18:31.700Z,16.68
2023-05-09T09:21:09.721Z,16.74
2023-05-09T09:23:44.438Z,16.67
2023-05-09T09:26:15.115Z,16.63
2023-05-09T09:28:45.604Z,16.59
2023-05-09T09:31:22.828Z,16.59
2023-05-09T09:33:53.223Z,16.54
2023-05-09T09:36:31.108Z,16.57
2023-05-09T09:39:02.601Z,16.51
2023-05-09T09:41:41.741Z,16.51
2023-05-09T09:44:15.034Z,16.51
2023-05-09T09:46:52.988Z,16.56
2023-05-09T09:49:24.693Z,16.54
2023-05-09T09:52:01.952Z,16.50
2023-05-09T09:54:34.871Z,16.51
2023-05-09T09:57:05.437Z,16.49
2023-05-09T09:59:35.434Z,16.51
2023-05-09T10:02:10.813Z,16.50
2023-05-09T10:04:46.137Z,16.51
2023-05-09T10:07:18.078Z,16.51
2023-05-09T10:09:50.626Z,16.50
2023-05-09T10:12:22.606Z,16.51
2023-05-09T10:14:55.980Z,16.49
2023-05-09T10:17:32.640Z,16.50
2023-05-09T10:20:08.213Z,16.53
2023-05-09T10:22:43.118Z,16.54
2023-05-09T10:25:22.187Z,16.60
2023-05-09T10:27:57.853Z,16.65
2023-05-09T10:30:37.321Z,16.77
2023-05-09T10:33:13.723Z,17.39
2023-05-09T10:35:48.462Z,17.76
2023-05-09T10:38:20.236Z,18.91
2023-05-09T10:40:50.854Z,21.06
2023-05-09T10:43:23.554Z,20.62
2023-05-09T10:45:55.027Z,20.24
2023-05-09T10:48:26.459Z,22.18
2023-05-09T10:50:59.316Z,25.25
2023-05-09T10:53:51.200Z,26.58
2023-05-09T10:56:27.177Z,26.63
2023-05-09T10:58:59.295Z,27.22
2023-05-09T11:01:39.737Z,27.22
2023-05-09T11:04:16.632Z,23.74
2023-05-09T11:06:54.544Z,23.13
2023-05-09T11:09:44.504Z,23.35
2023-05-09T11:12:17.376Z,24.94
2023-05-09T11:14:53.534Z,24.47
2023-05-09T11:17:24.044Z,23.07
2023-05-09T11:19:55.314Z,22.28
2023-05-09T11:22:29.548Z,21.92
2023-05-09T11:25:08.552Z,21.61
2023-05-09T11:27:50.655Z,21.60
2023-05-09T11:30:21.962Z,21.80
2023-05-09T11:32:57.300Z,21.92
2023-05-09T11:35:31.307Z,22.18
2023-05-09T11:38:03.965Z,22.08
2023-05-09T11:40:38.514Z,22.23
2023-05-09T11:43:11.960Z,22.31
2023-05-09T11:45:43.106Z,22.36
2023-05-09T11:48:14.333Z,22.52
2023-05-09T11:50:44.549Z,22.59
2023-05-09T11:53:14.756Z,22.69
2023-05-09T11:55:46.202Z,22.74
2023-05-09T11:58:17.434Z,22.84
2023-05-09T12:00:48.555Z,22.90
2023-05-09T12:03:19.533Z,23.14
2023-05-09T12:05:51.901Z,23.21
2023-05-09T12:08:26.000Z,23.21
2023-05-09T12:10:56.442Z,23.30
2023-05-09T12:13:27.984Z,23.24
2023-05-09T12:16:05.662Z,23.45
2023-05-09T12:18:37.955Z,23.41
2023-05-09T12:21:10.239Z,23.58
2023-05-09T12:23:41.212Z,23.85
2023-05-09T12:26:13.601Z,23.89
2023-05-09T12:28:45.026Z,24.08
2023-05-09T12:31:15.958Z,23.96
2023-05-09T12:33:46.336Z,24.10
2023-05-09T12:36:18.145Z,24.12
2023-05-09T12:38:57.381Z,24.16
2023-05-09T12:41:36.784Z,24.39
2023-05-09T12:44:09.742Z,24.43
2023-05-09T12:46:41.139Z,24.25
2023-05-09T12:49:24.651Z,24.46
2023-05-09T12:51:56.276Z,24.57
2023-05-09T12:54:30.494Z,24.84
2023-05-09T12:57:01.921Z,24.84
2023-05-09T12:59:33.233Z,25.14
2023-05-09T13:02:04.528Z,25.21
2023-05-09T13:04:35.772Z,25.35
2023-05-09T13:07:14.909Z,25.53
2023-05-09T13:10:03.736Z,25.57
2023-05-09T13:12:36.185Z,25.63
2023-05-09T13:15:10.952Z,25.59
2023-05-09T13:17:41.577Z,25.63
2023-05-09T13:20:13.232Z,25.76
2023-05-09T13:22:46.848Z,25.81
2023-05-09T13:33:25.730Z,25.83
2023-05-09T13:35:57.637Z,26.05
2023-05-09T13:38:27.875Z,26.02
2023-05-09T13:41:00.103Z,26.14
2023-05-09T13:43:30.637Z,26.16
2023-05-09T13:46:01.742Z,26.17
2023-05-09T13:48:35.980Z,26.07
2023-05-09T13:51:08.534Z,26.27
2023-05-09T13:53:40.116Z,26.32
2023-05-09T13:56:14.116Z,26.50
2023-05-09T13:58:45.656Z,26.61
2023-05-09T14:01:17.222Z,26.67
2023-05-09T14:03:51.007Z,26.60
2023-05-09T14:06:22.572Z,26.88
2023-05-09T14:08:54.118Z,26.90
2023-05-09T14:11:25.577Z,26.78
2023-05-09T14:13:56.945Z,26.94
2023-05-09T14:16:28.907Z,26.90
2023-05-09T14:19:00.055Z,26.88
2023-05-09T14:21:31.259Z,26.90
2023-05-09T14:24:01.862Z,27.11
2023-05-09T14:26:34.042Z,27.22
2023-05-09T14:29:06.685Z,27.53
2023-05-09T14:31:38.785Z,27.37
2023-05-09T14:34:09.190Z,27.21
2023-05-09T14:36:39.203Z,27.21
2023-05-09T14:39:10.139Z,27.05
2023-05-09T14:41:41.245Z,26.92
2023-05-09T14:44:11.441Z,26.57
2023-05-09T14:46:42.733Z,26.87
2023-05-09T14:49:13.914Z,27.09
2023-05-09T14:51:44.897Z,27.27
2023-05-09T14:54:16.086Z,27.16
2023-05-09T14:56:46.236Z,27.09
2023-05-09T14:59:17.996Z,27.14
2023-05-09T15:01:50.517Z,26.99
2023-05-09T15:04:21.485Z,27.05
2023-05-09T15:06:53.392Z,27.15
2023-05-09T15:09:24.656Z,27.22
2023-05-09T15:11:55.921Z,27.49
2023-05-09T15:14:32.914Z,27.58
2023-05-09T15:17:06.494Z,27.49
2023-05-09T15:19:38.483Z,27.63
2023-05-09T15:22:12.454Z,27.59
2023-05-09T15:24:44.423Z,27.59
2023-05-09T15:27:16.517Z,27.73
2023-05-09T15:29:48.061Z,27.73
2023-05-09T15:32:19.382Z,27.83
2023-05-09T15:34:49.742Z,27.69
2023-05-09T15:37:20.497Z,27.67
2023-05-09T15:39:52.784Z,27.65
2023-05-09T15:42:22.964Z,27.63
2023-05-09T15:44:53.602Z,27.70
2023-05-09T15:47:29.079Z,27.55
2023-05-09T15:50:00.401Z,27.60
2023-05-09T15:52:33.346Z,27.60
2023-05-09T15:55:15.198Z,27.70
2023-05-09T15:57:46.655Z,27.76
2023-05-09T16:00:18.645Z,27.80
2023-05-09T16:02:50.112Z,27.70
2023-05-09T16:05:21.192Z,27.74
2023-05-09T16:07:55.749Z,27.59
2023-05-09T16:10:27.042Z,27.49
2023-05-09T16:13:00.251Z,27.58
2023-05-09T16:15:31.369Z,27.50
2023-05-09T16:18:03.766Z,27.60
2023-05-09T16:20:34.685Z,27.69
2023-05-09T16:23:08.837Z,27.76
2023-05-09T16:25:41.314Z,27.67
2023-05-09T16:28:11.587Z,27.76
2023-05-09T16:30:43.480Z,27.70
2023-05-09T16:33:14.418Z,27.46
2023-05-09T16:35:45.507Z,27.49
2023-05-09T16:38:16.598Z,27.41
2023-05-09T16:40:46.916Z,27.39
2023-05-09T16:43:17.822Z,27.29
2023-05-09T16:45:50.239Z,27.42
2023-05-09T16:48:21.066Z,27.29
2023-05-09T16:50:54.928Z,27.16
2023-05-09T16:53:27.126Z,27.27
2023-05-09T16:55:58.337Z,27.15
2023-05-09T16:58:28.433Z,27.19
2023-05-09T17:01:01.100Z,27.28
2023-05-09T17:03:33.104Z,27.19
2023-05-09T17:06:04.741Z,27.19
2023-05-09T17:08:35.515Z,27.41
2023-05-09T17:11:07.736Z,27.35
2023-05-09T17:13:38.648Z,27.01
2023-05-09T17:16:09.672Z,26.97
2023-05-09T17:18:40.586Z,26.90
2023-05-09T17:21:10.871Z,26.94
2023-05-09T17:23:41.215Z,26.92
2023-05-09T17:26:12.535Z,26.90
2023-05-09T17:28:43.532Z,26.76
2023-05-09T17:31:15.353Z,26.88
2023-05-09T17:33:46.849Z,26.84
2023-05-09T17:36:17.825Z,26.83
2023-05-09T17:38:47.940Z,26.88
2023-05-09T17:41:18.797Z,26.88
2023-05-09T17:43:50.332Z,26.87
2023-05-09T17:46:20.781Z,26.91
2023-05-09T17:48:51.039Z,26.91
2023-05-09T17:51:21.692Z,26.80
2023-05-09T17:53:53.280Z,26.85
2023-05-09T17:56:25.050Z,26.76
2023-05-09T17:58:57.760Z,26.57
2023-05-09T18:01:28.947Z,26.48
2023-05-09T18:04:00.831Z,26.60
2023-05-09T18:06:31.277Z,26.58
2023-05-09T18:09:02.044Z,26.61
2023-05-09T18:11:33.255Z,26.48
2023-05-09T18:14:05.462Z,26.47
2023-05-09T18:16:40.957Z,26.40
2023-05-09T18:19:11.963Z,26.48
2023-05-09T18:21:43.128Z,26.39
2023-05-09T18:24:14.371Z,26.32
2023-05-09T18:26:47.276Z,26.06
2023-05-09T18:29:20.569Z,26.13
2023-05-09T18:31:51.865Z,26.02
2023-05-09T18:34:22.745Z,26.00
2023-05-09T18:36:57.469Z,25.95
2023-05-09T18:39:35.253Z,26.02
2023-05-09T18:42:07.723Z,25.89
2023-05-09T18:44:38.872Z,25.93
2023-05-09T18:47:10.490Z,25.79
2023-05-09T18:49:41.044Z,25.78
2023-05-09T18:52:11.920Z,25.71
2023-05-09T18:54:42.627Z,25.72
2023-05-09T18:57:12.637Z,25.58
2023-05-09T18:59:43.826Z,25.55
2023-05-09T19:02:13.895Z,25.45
2023-05-09T19:04:44.198Z,25.55
2023-05-09T19:07:18.451Z,25.63
2023-05-09T19:09:49.633Z,25.62
2023-05-09T19:12:19.805Z,25.43
2023-05-09T19:14:49.827Z,25.45
2023-05-09T19:17:21.881Z,25.35
2023-05-09T19:19:53.270Z,25.27
2023-05-09T19:22:23.363Z,25.10
2023-05-09T19:24:53.212Z,25.12
2023-05-09T19:27:24.773Z,25.07
2023-05-09T19:29:55.528Z,24.95
2023-05-09T19:32:26.825Z,25.00
2023-05-09T19:34:57.458Z,25.06
2023-05-09T19:37:27.580Z,24.83
2023-05-09T19:39:57.967Z,24.79
2023-05-09T19:42:28.189Z,24.71
2023-05-09T19:44:58.628Z,24.55
2023-05-09T19:47:30.130Z,24.49
2023-05-09T19:50:00.995Z,24.33
2023-05-09T19:52:31.436Z,24.29
2023-05-09T19:55:02.328Z,24.15
2023-05-09T19:57:33.269Z,24.15
2023-05-09T20:00:04.428Z,24.05
2023-05-09T20:02:36.826Z,23.89
2023-05-09T20:05:07.916Z,23.75
2023-05-09T20:07:38.338Z,23.69
2023-05-09T20:10:09.403Z,23.64
2023-05-09T20:12:40.114Z,23.54
2023-05-09T20:15:11.832Z,23.38
2023-05-09T20:17:42.303Z,23.25
2023-05-09T20:20:13.078Z,23.20
2023-05-09T20:22:43.299Z,23.04
2023-05-09T20:25:14.579Z,22.94
2023-05-09T20:27:46.333Z,22.82
2023-05-09T20:30:19.381Z,22.67
2023-05-09T20:32:50.559Z,22.63
2023-05-09T20:35:20.905Z,22.55
2023-05-09T20:37:52.844Z,22.39
2023-05-09T20:40:24.030Z,22.22
2023-05-09T20:42:54.404Z,22.13
2023-05-09T20:45:25.458Z,21.98
2023-05-09T20:47:57.272Z,21.90
2023-05-09T20:50:29.032Z,21.80
2023-05-09T20:53:00.734Z,21.68
2023-05-09T20:55:38.003Z,21.67
2023-05-09T20:58:10.976Z,21.64
2023-05-09T21:00:41.945Z,21.55
2023-05-09T21:03:12.516Z,21.48
2023-05-09T21:05:44.558Z,21.46
2023-05-09T21:08:14.981Z,21.40
2023-05-09T21:10:48.706Z,21.37
2023-05-09T21:13:19.477Z,21.34
2023-05-09T21:15:53.396Z,21.33
2023-05-09T21:18:24.670Z,21.34
2023-05-09T21:20:56.796Z,21.30
2023-05-09T21:23:27.681Z,21.24
2023-05-09T21:26:00.415Z,21.17
2023-05-09T21:28:33.243Z,21.14
2023-05-09T21:31:04.253Z,21.09
2023-05-09T21:33:36.112Z,21.07
2023-05-09T21:36:06.428Z,21.02
2023-05-09T21:38:37.071Z,20.99
2023-05-09T21:41:07.836Z,20.93
2023-05-09T21:43:41.023Z,20.86
2023-05-09T21:46:13.927Z,20.82
2023-05-09T21:48:46.429Z,20.75
2023-05-09T21:51:17.763Z,20.75
2023-05-09T21:53:49.896Z,20.66
2023-05-09T21:56:21.608Z,20.71
2023-05-09T21:58:52.853Z,20.62
2023-05-09T22:01:23.168Z,20.58
2023-05-09T22:03:53.757Z,20.56
2023-05-09T22:06:24.604Z,20.56
2023-05-09T22:08:54.830Z,20.53
2023-05-09T22:11:27.070Z,20.48
2023-05-09T22:13:58.774Z,20.44
2023-05-09T22:16:29.604Z,20.46
2023-05-09T22:19:01.334Z,20.44
2023-05-09T22:21:31.784Z,20.39
2023-05-09T22:24:01.884Z,20.36
2023-05-09T22:26:33.522Z,20.31
2023-05-09T22:29:03.820Z,20.25
2023-05-09T22:31:34.368Z,20.17
2023-05-09T22:34:06.707Z,20.11
2023-05-09T22:36:37.878Z,20.10
2023-05-09T22:39:08.003Z,20.15
2023-05-09T22:41:38.018Z,20.07
2023-05-09T22:44:08.976Z,20.04
2023-05-09T22:46:39.232Z,20.05
2023-05-09T22:49:10.006Z,19.97
2023-05-09T22:51:41.085Z,19.91
2023-05-09T22:54:11.498Z,19.88
2023-05-09T22:56:42.484Z,19.94
2023-05-09T22:59:13.584Z,19.94
2023-05-09T23:01:44.738Z,19.84
2023-05-09T23:04:16.400Z,19.78
2023-05-09T23:06:47.345Z,19.77
2023-05-09T23:09:19.077Z,19.74
2023-05-09T23:11:50.053Z,19.66
2023-05-09T23:14:20.584Z,19.60
2023-05-09T23:16:51.485Z,19.50
2023-05-09T23:19:21.916Z,19.47
2023-05-09T23:21:52.754Z,19.45
2023-05-09T23:24:24.396Z,19.45
2023-05-09T23:26:57.399Z,19.42
2023-05-09T23:29:27.606Z,19.40
2023-05-09T23:31:57.997Z,19.36
2023-05-09T23:34:28.375Z,19.29
2023-05-09T23:36:59.132Z,19.23
2023-05-09T23:39:30.287Z,19.10
2023-05-09T23:42:01.478Z,19.06
2023-05-09T23:44:32.522Z,19.02
2023-05-09T23:47:07.128Z,18.96
2023-05-09T23:49:37.806Z,18.98
2023-05-09T23:52:08.533Z,18.92
2023-05-09T23:54:39.504Z,18.87
2023-05-09T23:57:09.885Z,18.82
2023-05-09T23:59:39.928Z,18.82
